createdAt,value
2016-04-30T00:00:26.866Z,997.45
2016-04-30T00:02:26.855Z,997.41
2016-04-30T00:03:26.842Z,997.44
2016-04-30T00:04:27.049Z,997.39
2016-04-30T00:05:26.863Z,997.43
2016-04-30T00:06:26.882Z,997.43
2016-04-30T00:07:26.854Z,997.41
2016-04-30T00:08:26.856Z,997.41
2016-04-30T00:09:26.843Z,997.43
2016-04-30T00:10:26.846Z,997.42
2016-04-30T00:11:26.848Z,997.44
2016-04-30T00:12:26.835Z,997.42
2016-04-30T00:13:26.838Z,997.41
2016-04-30T00:14:27.482Z,997.39
2016-04-30T00:15:26.843Z,997.36
2016-04-30T00:16:26.831Z,997.4
2016-04-30T00:17:26.833Z,997.36
2016-04-30T00:18:27.305Z,997.38
2016-04-30T00:19:26.839Z,997.39
2016-04-30T00:20:26.857Z,997.4
2016-04-30T00:21:26.828Z,997.39
2016-04-30T00:22:26.831Z,997.39
2016-04-30T00:23:26.819Z,997.42
2016-04-30T00:24:26.836Z,997.39
2016-04-30T00:25:26.825Z,997.38
2016-04-30T00:26:27.061Z,997.34
2016-04-30T00:27:26.830Z,997.38
2016-04-30T00:28:26.832Z,997.37
2016-04-30T00:29:26.835Z,997.36
2016-04-30T00:30:26.821Z,997.37
2016-04-30T00:31:26.825Z,997.37
2016-04-30T00:32:26.843Z,997.3
2016-04-30T00:33:27.330Z,997.31
2016-04-30T00:34:27.019Z,997.33
2016-04-30T00:35:26.804Z,997.34
2016-04-30T00:36:26.807Z,997.34
2016-04-30T00:37:26.810Z,997.34
2016-04-30T00:38:26.812Z,997.35
2016-04-30T00:39:27.001Z,997.31
2016-04-30T00:40:26.801Z,997.34
2016-04-30T00:41:26.804Z,997.33
2016-04-30T00:42:26.791Z,997.34
2016-04-30T00:43:26.826Z,997.31
2016-04-30T00:44:27.015Z,997.31
2016-04-30T00:45:26.799Z,997.32
2016-04-30T00:46:26.787Z,997.3
2016-04-30T00:47:26.789Z,997.32
2016-04-30T00:48:26.792Z,997.31
2016-04-30T00:49:26.795Z,997.29
2016-04-30T00:50:26.797Z,997.32
2016-04-30T00:51:26.784Z,997.34
2016-04-30T00:52:26.803Z,997.38
2016-04-30T00:53:26.790Z,997.33
2016-04-30T00:54:26.777Z,997.35
2016-04-30T00:55:26.795Z,997.36
2016-04-30T00:56:26.797Z,997.34
2016-04-30T00:57:26.785Z,997.35
2016-04-30T00:58:26.772Z,997.34
2016-04-30T00:59:26.775Z,997.33
2016-04-30T01:00:26.777Z,997.32
2016-04-30T01:01:26.780Z,997.27
2016-04-30T01:02:26.766Z,997.34
2016-04-30T01:03:27.130Z,997.29
2016-04-30T01:04:26.772Z,997.31
2016-04-30T01:05:26.993Z,997.3
2016-04-30T01:06:26.763Z,997.3
2016-04-30T01:07:26.780Z,997.32
2016-04-30T01:08:27.002Z,997.32
2016-04-30T01:09:26.754Z,997.35
2016-04-30T01:10:26.757Z,997.31
2016-04-30T01:11:26.760Z,997.34
2016-04-30T01:12:26.763Z,997.32
2016-04-30T01:13:26.749Z,997.31
2016-04-30T01:14:26.768Z,997.29
2016-04-30T01:15:26.755Z,997.31
2016-04-30T01:16:26.742Z,997.36
2016-04-30T01:17:26.745Z,997.32
2016-04-30T01:18:26.763Z,997.29
2016-04-30T01:19:26.750Z,997.32
2016-04-30T01:20:26.737Z,997.29
2016-04-30T01:21:26.740Z,997.31
2016-04-30T01:22:26.742Z,997.28
2016-04-30T01:23:26.730Z,997.28
2016-04-30T01:24:26.733Z,997.31
2016-04-30T01:25:26.735Z,997.32
2016-04-30T01:26:26.753Z,997.3
2016-04-30T01:27:26.725Z,997.3
2016-04-30T01:28:26.727Z,997.3
2016-04-30T01:29:26.730Z,997.26
2016-04-30T01:30:26.748Z,997.28
2016-04-30T01:31:26.735Z,997.24
2016-04-30T01:32:26.739Z,997.26
2016-04-30T01:33:26.710Z,997.29
2016-04-30T01:34:26.713Z,997.28
2016-04-30T01:35:26.715Z,997.28
2016-04-30T01:36:26.718Z,997.26
2016-04-30T01:37:26.721Z,997.29
2016-04-30T01:38:26.926Z,997.28
2016-04-30T01:39:26.726Z,997.32
2016-04-30T01:40:26.713Z,997.32
2016-04-30T01:42:26.702Z,997.28
2016-04-30T01:43:26.721Z,997.28
2016-04-30T01:44:26.708Z,997.27
2016-04-30T01:45:26.711Z,997.23
2016-04-30T01:46:26.698Z,997.21
2016-04-30T01:47:26.684Z,997.22
2016-04-30T01:48:26.687Z,997.24
2016-04-30T01:49:26.690Z,997.18
2016-04-30T01:51:26.899Z,997.15
2016-04-30T01:52:26.698Z,997.15
2016-04-30T01:53:26.701Z,997.08
2016-04-30T01:54:26.688Z,997.07
2016-04-30T01:56:26.725Z,997.11
2016-04-30T01:57:26.883Z,997.1
2016-04-30T01:58:26.683Z,997.13
2016-04-30T01:59:26.702Z,997.12
2016-04-30T02:00:26.673Z,997.12
2016-04-30T02:01:26.675Z,997.1
2016-04-30T02:02:26.663Z,997.12
2016-04-30T02:03:26.666Z,997.11
2016-04-30T02:04:26.887Z,997.04
2016-04-30T02:05:26.655Z,997.07
2016-04-30T02:06:26.658Z,997.06
2016-04-30T02:07:26.691Z,997.07
2016-04-30T02:08:26.851Z,997.07
2016-04-30T02:09:26.650Z,997.06
2016-04-30T02:10:26.652Z,997.04
2016-04-30T02:11:26.655Z,997.04
2016-04-30T02:12:26.658Z,997.03
2016-04-30T02:13:26.661Z,997.07
2016-04-30T02:14:26.648Z,997.03
2016-04-30T02:15:26.634Z,997.06
2016-04-30T02:16:26.637Z,997.07
2016-04-30T02:17:26.641Z,997.08
2016-04-30T02:18:26.643Z,997.03
2016-04-30T02:19:26.662Z,997.03
2016-04-30T02:20:26.633Z,997.03
2016-04-30T02:21:26.636Z,997.02
2016-04-30T02:22:26.670Z,997.04
2016-04-30T02:23:26.626Z,997.02
2016-04-30T02:24:26.628Z,997.03
2016-04-30T02:25:26.834Z,997.01
2016-04-30T02:26:26.617Z,997
2016-04-30T02:27:26.620Z,997.04
2016-04-30T02:28:26.608Z,997.01
2016-04-30T02:29:26.610Z,997.03
2016-04-30T02:30:26.614Z,997.02
2016-04-30T02:31:26.616Z,997.01
2016-04-30T02:32:26.603Z,997.03
2016-04-30T02:33:26.605Z,996.98
2016-04-30T02:34:26.608Z,996.98
2016-04-30T02:35:26.594Z,996.97
2016-04-30T02:36:26.613Z,997
2016-04-30T02:37:26.600Z,996.99
2016-04-30T02:38:26.588Z,996.97
2016-04-30T02:39:26.590Z,996.97
2016-04-30T02:40:26.608Z,996.95
2016-04-30T02:41:26.611Z,996.97
2016-04-30T02:42:26.582Z,996.95
2016-04-30T02:43:26.585Z,996.96
2016-04-30T02:44:26.573Z,996.99
2016-04-30T02:45:26.576Z,996.99
2016-04-30T02:46:26.578Z,997.02
2016-04-30T02:48:26.770Z,996.99
2016-04-30T02:49:26.743Z,996.97
2016-04-30T02:50:26.573Z,996.96
2016-04-30T02:51:26.560Z,996.95
2016-04-30T02:52:26.578Z,996.96
2016-04-30T02:53:26.565Z,996.96
2016-04-30T02:54:26.755Z,996.97
2016-04-30T02:55:26.555Z,997
2016-04-30T02:56:26.559Z,996.98
2016-04-30T02:57:26.561Z,996.99
2016-04-30T02:58:26.564Z,997
2016-04-30T02:59:26.784Z,996.98
2016-04-30T03:00:26.552Z,996.96
2016-04-30T03:01:26.539Z,996.98
2016-04-30T03:02:26.542Z,996.96
2016-04-30T03:03:26.764Z,996.93
2016-04-30T03:04:26.533Z,996.95
2016-04-30T03:05:26.535Z,996.93
2016-04-30T03:06:26.522Z,996.94
2016-04-30T03:07:26.525Z,996.94
2016-04-30T03:08:26.528Z,996.92
2016-04-30T03:10:26.518Z,996.99
2016-04-30T03:11:26.520Z,996.95
2016-04-30T03:12:26.523Z,996.96
2016-04-30T03:13:26.510Z,996.94
2016-04-30T03:14:26.512Z,996.95
2016-04-30T03:15:26.516Z,996.92
2016-04-30T03:16:26.502Z,996.95
2016-04-30T03:17:26.537Z,996.92
2016-04-30T03:18:26.507Z,996.9
2016-04-30T03:19:26.807Z,996.87
2016-04-30T03:21:26.703Z,996.91
2016-04-30T03:22:26.487Z,996.89
2016-04-30T03:23:26.490Z,996.89
2016-04-30T03:24:26.492Z,996.91
2016-04-30T03:25:26.496Z,996.92
2016-04-30T03:26:26.482Z,996.88
2016-04-30T03:27:26.469Z,996.92
2016-04-30T03:28:26.487Z,996.86
2016-04-30T03:29:26.475Z,996.93
2016-04-30T03:30:26.478Z,996.87
2016-04-30T03:31:26.495Z,996.91
2016-04-30T03:32:26.516Z,996.95
2016-04-30T03:33:26.571Z,996.92
2016-04-30T03:34:26.628Z,996.94
2016-04-30T03:35:26.668Z,996.9
2016-04-30T03:36:26.724Z,996.96
2016-04-30T03:37:26.748Z,996.94
2016-04-30T03:38:26.753Z,996.93
2016-04-30T03:39:26.775Z,996.96
2016-04-30T03:40:26.812Z,996.94
2016-04-30T03:41:26.818Z,996.95
2016-04-30T03:42:26.844Z,996.91
2016-04-30T03:43:26.822Z,996.94
2016-04-30T03:44:26.816Z,996.92
2016-04-30T03:45:26.826Z,996.94
2016-04-30T03:46:26.836Z,996.92
2016-04-30T03:47:27.028Z,996.9
2016-04-30T03:48:26.830Z,996.94
2016-04-30T03:49:26.977Z,996.94
2016-04-30T03:50:26.825Z,996.98
2016-04-30T03:51:26.847Z,996.96
2016-04-30T03:52:26.835Z,996.98
2016-04-30T03:54:26.827Z,996.96
2016-04-30T03:55:26.814Z,997
2016-04-30T03:56:26.817Z,997
2016-04-30T03:57:26.820Z,997
2016-04-30T03:58:26.840Z,996.97
2016-04-30T03:59:26.811Z,997.01
2016-04-30T04:00:26.815Z,996.99
2016-04-30T04:01:26.802Z,996.99
2016-04-30T04:02:26.805Z,997
2016-04-30T04:03:26.808Z,997.03
2016-04-30T04:04:27.013Z,997.01
2016-04-30T04:05:26.796Z,997.02
2016-04-30T04:06:26.799Z,997
2016-04-30T04:07:26.801Z,996.99
2016-04-30T04:08:26.790Z,996.97
2016-04-30T04:09:26.793Z,996.98
2016-04-30T04:10:26.795Z,996.98
2016-04-30T04:11:26.782Z,997.01
2016-04-30T04:12:26.784Z,997.03
2016-04-30T04:13:26.787Z,997.02
2016-04-30T04:14:26.790Z,997.04
2016-04-30T04:15:26.777Z,997.07
2016-04-30T04:16:26.779Z,997.08
2016-04-30T04:17:26.782Z,997.07
2016-04-30T04:18:26.784Z,997.01
2016-04-30T04:19:26.787Z,997.02
2016-04-30T04:20:26.775Z,997
2016-04-30T04:21:26.762Z,997.02
2016-04-30T04:22:26.780Z,997
2016-04-30T04:23:26.798Z,997.01
2016-04-30T04:24:26.754Z,996.99
2016-04-30T04:25:26.757Z,997.02
2016-04-30T04:26:26.775Z,997
2016-04-30T04:27:26.794Z,997.02
2016-04-30T04:28:26.750Z,997.04
2016-04-30T04:29:26.752Z,997.07
2016-04-30T04:30:26.755Z,997
2016-04-30T04:31:26.741Z,997.04
2016-04-30T04:32:26.744Z,997.04
2016-04-30T04:33:26.746Z,997.05
2016-04-30T04:35:26.737Z,997.06
2016-04-30T04:36:26.740Z,997.06
2016-04-30T04:37:26.743Z,997.05
2016-04-30T04:38:26.745Z,997.02
2016-04-30T04:39:26.732Z,997.04
2016-04-30T04:40:26.938Z,997.07
2016-04-30T04:41:26.737Z,997.06
2016-04-30T04:42:26.724Z,997.03
2016-04-30T04:43:26.743Z,997.09
2016-04-30T04:44:26.729Z,997.08
2016-04-30T04:46:26.735Z,997.05
2016-04-30T04:47:26.754Z,997.05
2016-04-30T04:48:26.725Z,997.1
2016-04-30T04:49:26.915Z,997.12
2016-04-30T04:50:26.714Z,997.11
2016-04-30T04:51:26.733Z,997.12
2016-04-30T04:52:26.719Z,997.13
2016-04-30T04:53:26.723Z,997.13
2016-04-30T04:54:26.710Z,997.12
2016-04-30T04:55:26.713Z,997.16
2016-04-30T04:56:26.715Z,997.16
2016-04-30T04:57:26.718Z,997.16
2016-04-30T04:58:26.721Z,997.14
2016-04-30T04:59:26.942Z,997.18
2016-04-30T05:00:26.708Z,997.17
2016-04-30T05:01:26.711Z,997.18
2016-04-30T05:02:26.713Z,997.15
2016-04-30T05:03:26.716Z,997.18
2016-04-30T05:04:26.734Z,997.16
2016-04-30T05:05:26.911Z,997.17
2016-04-30T05:06:26.708Z,997.17
2016-04-30T05:07:26.696Z,997.17
2016-04-30T05:08:26.698Z,997.16
2016-04-30T05:09:26.701Z,997.16
2016-04-30T05:10:26.703Z,997.19
2016-04-30T05:11:26.721Z,997.18
2016-04-30T05:12:26.693Z,997.18
2016-04-30T05:13:26.696Z,997.21
2016-04-30T05:14:26.698Z,997.22
2016-04-30T05:15:26.701Z,997.22
2016-04-30T05:16:26.704Z,997.23
2016-04-30T05:17:26.706Z,997.19
2016-04-30T05:18:27.147Z,997.25
2016-04-30T05:19:26.900Z,997.27
2016-04-30T05:20:26.699Z,997.29
2016-04-30T05:21:26.701Z,997.28
2016-04-30T05:22:26.704Z,997.29
2016-04-30T05:23:26.706Z,997.26
2016-04-30T05:24:26.709Z,997.28
2016-04-30T05:25:26.728Z,997.35
2016-04-30T05:26:26.700Z,997.3
2016-04-30T05:27:26.905Z,997.34
2016-04-30T05:28:26.705Z,997.32
2016-04-30T05:30:26.710Z,997.33
2016-04-30T05:31:26.697Z,997.35
2016-04-30T05:32:26.700Z,997.32
2016-04-30T05:33:26.905Z,997.36
2016-04-30T05:34:26.705Z,997.37
2016-04-30T05:35:26.708Z,997.35
2016-04-30T05:36:26.695Z,997.34
2016-04-30T05:37:26.699Z,997.38
2016-04-30T05:38:26.701Z,997.34
2016-04-30T05:39:26.735Z,997.34
2016-04-30T05:40:26.721Z,997.34
2016-04-30T05:41:26.709Z,997.35
2016-04-30T05:42:26.711Z,997.37
2016-04-30T05:43:26.714Z,997.38
2016-04-30T05:44:26.701Z,997.39
2016-04-30T05:45:26.704Z,997.37
2016-04-30T05:46:26.707Z,997.39
2016-04-30T05:47:26.709Z,997.37
2016-04-30T05:48:26.712Z,997.41
2016-04-30T05:49:26.918Z,997.42
2016-04-30T05:50:26.951Z,997.4
2016-04-30T05:51:26.720Z,997.4
2016-04-30T05:52:26.706Z,997.41
2016-04-30T05:53:26.725Z,997.44
2016-04-30T05:54:26.712Z,997.41
2016-04-30T05:55:26.714Z,997.46
2016-04-30T05:56:26.733Z,997.43
2016-04-30T05:57:26.720Z,997.43
2016-04-30T05:58:26.723Z,997.44
2016-04-30T05:59:26.726Z,997.44
2016-04-30T06:00:26.729Z,997.46
2016-04-30T06:01:26.730Z,997.45
2016-04-30T06:02:26.733Z,997.43
2016-04-30T06:03:26.737Z,997.4
2016-04-30T06:04:26.739Z,997.45
2016-04-30T06:05:26.727Z,997.41
2016-04-30T06:06:26.744Z,997.41
2016-04-30T06:07:26.950Z,997.42
2016-04-30T06:08:26.735Z,997.38
2016-04-30T06:09:26.737Z,997.39
2016-04-30T06:10:26.740Z,997.41
2016-04-30T06:11:26.743Z,997.38
2016-04-30T06:12:26.746Z,997.35
2016-04-30T06:13:26.763Z,997.35
2016-04-30T06:14:26.782Z,997.39
2016-04-30T06:15:26.768Z,997.37
2016-04-30T06:17:27.181Z,997.37
2016-04-30T06:18:26.776Z,997.37
2016-04-30T06:19:27.342Z,997.4
2016-04-30T06:20:26.767Z,997.35
2016-04-30T06:21:26.770Z,997.35
2016-04-30T06:22:26.772Z,997.39
2016-04-30T06:23:26.784Z,997.36
2016-04-30T06:24:26.772Z,997.36
2016-04-30T06:25:26.774Z,997.36
2016-04-30T06:26:26.777Z,997.37
2016-04-30T06:27:26.780Z,997.38
2016-04-30T06:28:26.783Z,997.42
2016-04-30T06:29:26.800Z,997.4
2016-04-30T06:30:26.788Z,997.38
2016-04-30T06:32:27.028Z,997.4
2016-04-30T06:33:26.811Z,997.39
2016-04-30T06:34:26.814Z,997.39
2016-04-30T06:36:26.819Z,997.42
2016-04-30T06:37:26.822Z,997.39
2016-04-30T06:38:26.824Z,997.35
2016-04-30T06:39:26.843Z,997.42
2016-04-30T06:40:26.815Z,997.37
2016-04-30T06:41:26.833Z,997.36
2016-04-30T06:42:27.054Z,997.37
2016-04-30T06:43:26.854Z,997.37
2016-04-30T06:44:26.840Z,997.36
2016-04-30T06:45:26.843Z,997.36
2016-04-30T06:46:26.846Z,997.35
2016-04-30T06:47:26.848Z,997.37
2016-04-30T06:48:27.258Z,997.36
2016-04-30T06:49:26.854Z,997.38
2016-04-30T06:50:27.061Z,997.41
2016-04-30T06:51:26.860Z,997.35
2016-04-30T06:52:26.878Z,997.35
2016-04-30T06:53:26.864Z,997.38
2016-04-30T06:54:26.868Z,997.35
2016-04-30T06:55:26.887Z,997.34
2016-04-30T06:56:26.889Z,997.35
2016-04-30T06:57:26.891Z,997.37
2016-04-30T06:58:27.097Z,997.38
2016-04-30T06:59:26.897Z,997.4
2016-04-30T07:00:26.900Z,997.43
2016-04-30T07:01:26.903Z,997.41
2016-04-30T07:02:26.921Z,997.41
2016-04-30T07:05:27.132Z,997.37
2016-04-30T07:06:26.931Z,997.37
2016-04-30T07:07:26.950Z,997.39
2016-04-30T07:08:26.952Z,997.36
2016-04-30T07:09:26.940Z,997.37
2016-04-30T07:10:26.974Z,997.33
2016-04-30T07:11:26.992Z,997.31
2016-04-30T07:12:26.963Z,997.29
2016-04-30T07:13:27.013Z,997.32
2016-04-30T07:14:26.968Z,997.29
2016-04-30T07:15:26.987Z,997.34
2016-04-30T07:16:27.006Z,997.31
2016-04-30T07:17:27.009Z,997.32
2016-04-30T07:18:26.995Z,997.35
2016-04-30T07:19:27.029Z,997.33
2016-04-30T07:20:27.016Z,997.33
2016-04-30T07:21:27.019Z,997.36
2016-04-30T07:23:27.056Z,997.33
2016-04-30T07:24:27.042Z,997.35
2016-04-30T07:25:27.280Z,997.3
2016-04-30T07:27:27.081Z,997.27
2016-04-30T07:28:27.288Z,997.26
2016-04-30T07:29:27.072Z,997.28
2016-04-30T07:30:27.309Z,997.22
2016-04-30T07:31:27.092Z,997.25
2016-04-30T07:32:27.330Z,997.25
2016-04-30T07:33:27.097Z,997.24
2016-04-30T07:34:27.116Z,997.22
2016-04-30T07:35:27.103Z,997.23
2016-04-30T07:36:27.122Z,997.26
2016-04-30T07:37:27.124Z,997.21
2016-04-30T07:38:27.127Z,997.2
2016-04-30T07:39:27.130Z,997.23
2016-04-30T07:40:27.148Z,997.19
2016-04-30T07:41:27.166Z,997.2
2016-04-30T07:42:27.154Z,997.17
2016-04-30T07:43:27.156Z,997.21
2016-04-30T07:44:27.174Z,997.17
2016-04-30T07:45:27.412Z,997.19
2016-04-30T07:46:27.195Z,997.2
2016-04-30T07:47:27.198Z,997.19
2016-04-30T07:48:27.201Z,997.2
2016-04-30T07:49:27.204Z,997.16
2016-04-30T07:50:27.222Z,997.15
2016-04-30T07:51:27.225Z,997.15
2016-04-30T07:52:27.242Z,997.14
2016-04-30T07:53:27.230Z,997.16
2016-04-30T07:54:27.248Z,997.14
2016-04-30T07:55:27.251Z,997.17
2016-04-30T07:56:27.253Z,997.14
2016-04-30T07:57:27.272Z,997.15
2016-04-30T07:58:27.275Z,997.19
2016-04-30T07:59:27.277Z,997.19
2016-04-30T08:00:27.280Z,997.19
2016-04-30T08:01:27.298Z,997.17
2016-04-30T08:02:27.300Z,997.17
2016-04-30T08:03:27.350Z,997.17
2016-04-30T08:04:27.353Z,997.15
2016-04-30T08:05:27.355Z,997.18
2016-04-30T08:06:27.343Z,997.14
2016-04-30T08:07:27.345Z,997.21
2016-04-30T08:08:27.364Z,997.17
2016-04-30T08:10:27.369Z,997.12
2016-04-30T08:11:27.574Z,997.1
2016-04-30T08:12:27.390Z,997.15
2016-04-30T08:13:27.596Z,997.15
2016-04-30T08:14:27.832Z,997.14
2016-04-30T08:15:27.414Z,997.18
2016-04-30T08:16:27.432Z,997.11
2016-04-30T08:17:27.623Z,997.14
2016-04-30T08:18:27.437Z,997.14
2016-04-30T08:19:27.440Z,997.09
2016-04-30T08:20:27.474Z,997.07
2016-04-30T08:22:27.479Z,997.13
2016-04-30T08:23:27.498Z,997.08
2016-04-30T08:24:27.485Z,997.07
2016-04-30T08:25:27.488Z,997.04
2016-04-30T08:26:27.506Z,997.07
2016-04-30T08:27:27.508Z,997.08
2016-04-30T08:28:27.512Z,997.06
2016-04-30T08:29:27.530Z,997.04
2016-04-30T08:30:27.532Z,997.05
2016-04-30T08:31:27.536Z,997.02
2016-04-30T08:32:27.538Z,997.05
2016-04-30T08:33:27.556Z,997.02
2016-04-30T08:34:27.558Z,997.07
2016-04-30T08:35:27.577Z,997.09
2016-04-30T08:36:27.579Z,997.04
2016-04-30T08:37:27.583Z,997.04
2016-04-30T08:38:27.601Z,997.04
2016-04-30T08:39:27.649Z,997.02
2016-04-30T08:40:27.668Z,996.99
2016-04-30T08:41:27.655Z,996.96
2016-04-30T08:42:27.627Z,996.97
2016-04-30T08:43:27.629Z,997.01
2016-04-30T08:44:27.648Z,996.95
2016-04-30T08:45:27.682Z,996.95
2016-04-30T08:46:27.654Z,996.99
2016-04-30T08:47:27.656Z,996.97
2016-04-30T08:48:27.674Z,996.98
2016-04-30T08:49:27.677Z,997
2016-04-30T08:50:27.696Z,997
2016-04-30T08:51:27.714Z,996.98
2016-04-30T08:52:27.920Z,997.01
2016-04-30T08:53:27.923Z,997
2016-04-30T08:54:27.722Z,997.02
2016-04-30T08:55:27.739Z,997
2016-04-30T08:56:27.945Z,997.04
2016-04-30T08:57:27.964Z,997.01
2016-04-30T08:58:27.748Z,997.01
2016-04-30T08:59:27.766Z,996.99
2016-04-30T09:00:27.769Z,996.99
2016-04-30T09:03:27.793Z,997.04
2016-04-30T09:04:27.827Z,997.05
2016-04-30T09:05:27.830Z,997.06
2016-04-30T09:06:27.833Z,997.07
2016-04-30T09:07:27.835Z,997.05
2016-04-30T09:08:27.853Z,997
2016-04-30T09:09:27.856Z,997.04
2016-04-30T09:10:27.858Z,997.01
2016-04-30T09:11:27.860Z,996.99
2016-04-30T09:12:27.879Z,997
2016-04-30T09:13:27.882Z,996.98
2016-04-30T09:14:27.916Z,996.96
2016-04-30T09:15:27.903Z,997
2016-04-30T09:16:27.906Z,997.02
2016-04-30T09:17:27.924Z,997.02
2016-04-30T09:18:27.927Z,997.02
2016-04-30T09:19:29.664Z,996.98
2016-04-30T09:20:27.948Z,996.95
2016-04-30T09:21:28.154Z,997
2016-04-30T09:22:27.970Z,996.99
2016-04-30T09:23:27.972Z,996.94
2016-04-30T09:24:27.975Z,996.97
2016-04-30T09:26:27.996Z,997
2016-04-30T09:27:28.013Z,996.97
2016-04-30T09:28:28.016Z,996.96
2016-04-30T09:29:28.034Z,997.01
2016-04-30T09:30:28.069Z,997
2016-04-30T09:31:28.039Z,996.94
2016-04-30T09:32:28.058Z,996.94
2016-04-30T09:33:28.061Z,996.97
2016-04-30T09:34:28.173Z,996.93
2016-04-30T09:35:28.082Z,996.94
2016-04-30T09:36:28.086Z,996.97
2016-04-30T09:37:28.103Z,996.9
2016-04-30T09:38:28.105Z,996.93
2016-04-30T09:39:28.108Z,996.88
2016-04-30T09:40:28.127Z,996.88
2016-04-30T09:41:28.130Z,996.88
2016-04-30T09:42:28.148Z,996.87
2016-04-30T09:43:28.151Z,996.88
2016-04-30T09:44:28.153Z,996.87
2016-04-30T09:45:28.375Z,996.8
2016-04-30T09:46:28.174Z,996.84
2016-04-30T09:47:28.192Z,996.8
2016-04-30T09:48:28.196Z,996.82
2016-04-30T09:49:28.213Z,996.8
2016-04-30T09:50:28.247Z,996.82
2016-04-30T09:51:28.423Z,996.79
2016-04-30T09:52:28.237Z,996.77
2016-04-30T09:54:28.259Z,996.76
2016-04-30T09:56:28.279Z,996.69
2016-04-30T09:57:28.281Z,996.75
2016-04-30T09:58:28.300Z,996.73
2016-04-30T09:59:28.303Z,996.72
2016-04-30T10:00:28.306Z,996.69
2016-04-30T10:01:28.324Z,996.68
2016-04-30T10:02:28.327Z,996.7
2016-04-30T10:03:28.330Z,996.68
2016-04-30T10:04:28.458Z,996.7
2016-04-30T10:05:28.366Z,996.7
2016-04-30T10:06:28.369Z,996.72
2016-04-30T10:07:28.402Z,996.67
2016-04-30T10:08:28.405Z,996.66
2016-04-30T10:09:28.596Z,996.62
2016-04-30T10:10:28.410Z,996.7
2016-04-30T10:11:28.429Z,996.68
2016-04-30T10:12:28.432Z,996.7
2016-04-30T10:13:28.434Z,996.62
2016-04-30T10:14:28.656Z,996.69
2016-04-30T10:15:28.471Z,996.69
2016-04-30T10:16:28.458Z,996.66
2016-04-30T10:17:28.476Z,996.66
2016-04-30T10:18:28.495Z,996.71
2016-04-30T10:19:28.498Z,996.65
2016-04-30T10:20:28.500Z,996.6
2016-04-30T10:21:28.519Z,996.61
2016-04-30T10:22:28.521Z,996.61
2016-04-30T10:23:28.540Z,996.63
2016-04-30T10:24:28.543Z,996.62
2016-04-30T10:25:28.560Z,996.63
2016-04-30T10:26:28.766Z,996.58
2016-04-30T10:27:28.785Z,996.57
2016-04-30T10:28:28.584Z,996.53
2016-04-30T10:30:28.809Z,996.56
2016-04-30T10:31:28.639Z,996.6
2016-04-30T10:32:28.626Z,996.58
2016-04-30T10:33:28.645Z,996.61
2016-04-30T10:34:28.913Z,996.59
2016-04-30T10:35:28.666Z,996.61
2016-04-30T10:36:28.683Z,996.56
2016-04-30T10:37:28.687Z,996.57
2016-04-30T10:38:28.705Z,996.57
2016-04-30T10:39:28.708Z,996.62
2016-04-30T10:41:28.760Z,996.58
2016-04-30T10:43:28.953Z,996.58
2016-04-30T10:44:28.768Z,996.54
2016-04-30T10:45:28.771Z,996.52
2016-04-30T10:46:28.789Z,996.47
2016-04-30T10:47:28.791Z,996.45
2016-04-30T10:48:28.810Z,996.45
2016-04-30T10:49:28.922Z,996.46
2016-04-30T10:50:28.831Z,996.44
2016-04-30T10:51:28.834Z,996.44
2016-04-30T10:52:29.054Z,996.45
2016-04-30T10:53:28.902Z,996.41
2016-04-30T10:54:28.921Z,996.49
2016-04-30T10:55:28.891Z,996.47
2016-04-30T10:56:28.894Z,996.43
2016-04-30T10:57:28.912Z,996.5
2016-04-30T10:58:29.149Z,996.45
2016-04-30T10:59:28.949Z,996.49
2016-04-30T11:00:28.967Z,996.45
2016-04-30T11:01:28.970Z,996.45
2016-04-30T11:02:28.972Z,996.44
2016-04-30T11:03:29.226Z,996.42
2016-04-30T11:04:28.994Z,996.46
2016-04-30T11:05:29.011Z,996.46
2016-04-30T11:06:29.015Z,996.49
2016-04-30T11:07:29.033Z,996.45
2016-04-30T11:08:29.035Z,996.44
2016-04-30T11:09:29.054Z,996.45
2016-04-30T11:10:29.073Z,996.45
2016-04-30T11:11:29.075Z,996.42
2016-04-30T11:12:29.093Z,996.44
2016-04-30T11:13:29.908Z,996.47
2016-04-30T11:14:29.105Z,996.45
2016-04-30T11:15:29.119Z,996.5
2016-04-30T11:16:29.142Z,996.52
2016-04-30T11:17:29.155Z,996.49
2016-04-30T11:18:29.158Z,996.5
2016-04-30T11:19:29.161Z,996.47
2016-04-30T11:20:29.180Z,996.45
2016-04-30T11:21:29.198Z,996.47
2016-04-30T11:22:29.404Z,996.46
2016-04-30T11:23:29.234Z,996.46
2016-04-30T11:24:29.221Z,996.43
2016-04-30T11:25:29.256Z,996.45
2016-04-30T11:26:29.258Z,996.46
2016-04-30T11:27:29.261Z,996.46
2016-04-30T11:28:29.279Z,996.46
2016-04-30T11:29:29.484Z,996.46
2016-04-30T11:30:29.300Z,996.46
2016-04-30T11:31:29.318Z,996.42
2016-04-30T11:32:29.320Z,996.41
2016-04-30T11:34:29.358Z,996.37
2016-04-30T11:35:29.376Z,996.36
2016-04-30T11:36:29.379Z,996.37
2016-04-30T11:37:29.397Z,996.36
2016-04-30T11:38:29.415Z,996.37
2016-04-30T11:39:29.433Z,996.32
2016-04-30T11:40:29.436Z,996.31
2016-04-30T11:42:29.520Z,996.29
2016-04-30T11:43:29.475Z,996.36
2016-04-30T11:44:29.494Z,996.28
2016-04-30T11:45:29.497Z,996.32
2016-04-30T11:46:29.516Z,996.24
2016-04-30T11:47:29.736Z,996.25
2016-04-30T11:48:29.785Z,996.26
2016-04-30T11:49:29.804Z,996.24
2016-04-30T11:50:29.588Z,996.25
2016-04-30T11:51:29.591Z,996.26
2016-04-30T11:52:29.624Z,996.27
2016-04-30T11:53:29.612Z,996.27
2016-04-30T11:54:29.661Z,996.28
2016-04-30T11:55:29.664Z,996.3
2016-04-30T11:56:29.667Z,996.3
2016-04-30T11:57:29.670Z,996.28
2016-04-30T11:58:29.687Z,996.3
2016-04-30T11:59:29.706Z,996.29
2016-04-30T12:00:29.725Z,996.27
2016-04-30T12:01:29.978Z,996.32
2016-04-30T12:02:29.762Z,996.33
2016-04-30T12:03:29.763Z,996.29
2016-04-30T12:04:29.781Z,996.29
2016-04-30T12:05:29.801Z,996.3
2016-04-30T12:06:29.803Z,996.29
2016-04-30T12:07:29.822Z,996.31
2016-04-30T12:09:29.858Z,996.28
2016-04-30T12:10:29.876Z,996.26
2016-04-30T12:11:29.925Z,996.28
2016-04-30T12:12:29.897Z,996.3
2016-04-30T12:13:30.556Z,996.24
2016-04-30T12:15:29.952Z,996.22
2016-04-30T12:16:29.955Z,996.25
2016-04-30T12:17:29.988Z,996.22
2016-04-30T12:18:30.007Z,996.25
2016-04-30T12:19:30.026Z,996.21
2016-04-30T12:20:30.029Z,996.31
2016-04-30T12:21:30.062Z,996.27
2016-04-30T12:22:30.065Z,996.23
2016-04-30T12:23:30.082Z,996.23
2016-04-30T12:24:30.085Z,996.21
2016-04-30T12:25:30.104Z,996.26
2016-04-30T12:26:30.123Z,996.24
2016-04-30T12:27:30.141Z,996.22
2016-04-30T12:28:30.175Z,996.2
2016-04-30T12:29:30.162Z,996.21
2016-04-30T12:30:30.181Z,996.19
2016-04-30T12:31:30.433Z,996.17
2016-04-30T12:32:30.216Z,996.17
2016-04-30T12:33:30.250Z,996.16
2016-04-30T12:34:30.253Z,996.15
2016-04-30T12:35:30.272Z,996.13
2016-04-30T12:36:30.274Z,996.16
2016-04-30T12:37:30.324Z,996.17
2016-04-30T12:38:30.322Z,996.21
2016-04-30T12:39:30.381Z,996.18
2016-04-30T12:40:30.440Z,996.19
2016-04-30T12:41:30.483Z,996.19
2016-04-30T12:42:30.542Z,996.17
2016-04-30T12:43:30.609Z,996.19
2016-04-30T12:44:30.627Z,996.2
2016-04-30T12:45:30.661Z,996.19
2016-04-30T12:46:30.709Z,996.17
2016-04-30T12:47:30.727Z,996.17
2016-04-30T12:48:30.772Z,996.21
2016-04-30T12:49:30.780Z,996.18
2016-04-30T12:50:30.788Z,996.16
2016-04-30T12:51:30.812Z,996.1
2016-04-30T12:52:30.835Z,996.09
2016-04-30T12:53:30.858Z,996.06
2016-04-30T12:54:30.894Z,996.03
2016-04-30T12:55:30.898Z,996.05
2016-04-30T12:56:30.919Z,996.06
2016-04-30T12:57:30.940Z,996.03
2016-04-30T12:58:31.147Z,996.04
2016-04-30T12:59:31.197Z,996.02
2016-04-30T13:00:30.981Z,996
2016-04-30T13:01:31.000Z,996
2016-04-30T13:02:31.018Z,995.98
2016-04-30T13:03:31.038Z,995.96
2016-04-30T13:04:31.728Z,995.93